Ride Results

Victorian State Championships (03-10-2008)
Ride distance: 160.0 km

Outcomes - Victorian State Championships (03-10-2008)
Division No. of Entries Retired / DNE Completed Withdrawn Ineligible V/O Percentage Completed
HW 4 - 3 1 - - 75.00%
MW 12 - 9 - - 3 75.00%
LW 7 - 7 - - - 100.00%
JN 3 - 2 - - 1 66.67%
Totals 26 - 21 1 - 4 80.77%
Results - Victorian State Championships (03-10-2008)
No. Rider Horse Place Time Leg Speeds Total
Km/Hr
H/R bpm
Heavyweight
18 Ken Bradley Phoenix Park Epona 1 (BC) 12:54:00 14.9, 17.2, 9.5, 10.6 12.40 40, 47, 53, 52, 56 (Avg:52)
855 Ray Heinrich Brookman Park Wizard 2 15:58:00 12.2, 11.5, 8.7, 8.5 10.02 40, 44, 49, 50, 58 (Avg:50)
54 Rowena McLean Brieema Khan 3 17:35:00 11.8, 10.7, 8.3, 6.9 9.10 36, 49, 52, 48, 52 (Avg:50)
82 Jarrod Robinson Julian Withdrawn L3 0:00:00 - - 34, 50, 60, 56 (Avg:55)
Middleweight
142 Jan Scholes Gayland Mariah 1 (BC) 11:44:00 15.0, 14.5, 12.0, 13.2 13.64 28, 42, 45, 49, 44 (Avg:45)
42 Hans Peuker Marybank Celia 2 12:02:00 15.1, 14.4, 12.0, 12.0 13.30 31, 43, 45, 48, 59 (Avg:48)
100 Fay Bushby Pyrenees Phenomenon 3 13:50:00 12.7, 13.4, 10.0, 10.6 11.57 27, 40, 43, 44, 47 (Avg:43)
69 Sue Cavill Koonwarra Kavalier 3 13:50:00 12.7, 13.4, 10.0, 10.6 11.57 32, 45, 50, 51, 54 (Avg:50)
56 Wendy Bootle Blue Bopp 5 14:33:00 12.6, 12.2, 9.5, 10.1 11.00 36, 47, 49, 40, 53 (Avg:47)
51 Jim Maffett Min The Third 6 15:58:00 12.2, 11.0, 9.1, 8.5 10.02 33, 43, 44, 42, 47 (Avg:44)
23 Brittnee Smith Timbertop Adonis 7 17:35:00 11.8, 10.7, 8.3, 6.9 9.10 34, 49, 53, 46, 45 (Avg:48)
130 Jennifer Carland Musical Gully Tenor 8 19:04:00 8.8, 8.7, 7.3, 8.8 8.39 34, 42, 44, 46, 47 (Avg:44)
60 Leanne Wyllie Dunbraeton Farah 9 19:44:00 8.8, 8.7, 7.3, 7.6 8.11 33, 41, 42, 44, 44 (Avg:42)
89 Sheryl Herbert Krishlah Maleeka Lame L4 0:00:00 8.9, 8.6, 7.3, 15.6 - 34, 46, 44, 56, 48 (Avg:48)
181 Sharee Court Just Shakira Lame L2 0:00:00 8.9, 16.7 - 32, 44, 49 (Avg:46)
33 Tamara Atkinson Cieanna Lame L1 0:00:00 12.9 - 37, 47 (Avg:47)
Lightweight
85 Belinda Kolek Colhaven Zaheera 1 (BC) 10:19:00 19.3, 13.7, 14.2, 15.8 15.51 30, 38, 40, 42, 42 (Avg:40)
898 Brianna Bainger Inman Park Nevation 2 10:53:00 19.3, 11.4, 15.8, 14.2 14.70 40, 50, 58, 46, 54 (Avg:52)
91 Kim Noble Roheryn Park Khaleef 3 12:45:00 12.8, 14.1, 12.4, 11.1 12.55 40, 41, 47, 46, 46 (Avg:45)
103 Jess Welsh Highland View Stockman 4 12:54:00 11.9, 15.8, 10.4, 12.4 12.40 38, 48, 53, 52, 58 (Avg:52)
11 Rohan Stanes Shuja Bint Melika 5 14:33:00 12.6, 12.2, 9.5, 10.1 11.00 32, 37, 32, 45, 48 (Avg:40)
210 Fiona Hodges Shuja Nadji Riffan 6 17:35:00 11.8, 10.7, 8.3, 6.9 9.10 32, 41, 48, 51, 49 (Avg:47)
49 Jessica Remfry Ennerdale Meccano 7 19:44:00 8.9, 8.6, 7.3, 7.6 8.11 33, 36, 38, 42, 44 (Avg:40)
Junior
102 Jesse McKinnon Highland View Fly 1 10:49:00 11.9, 15.8, 14.5, 18.1 14.79 40, 43, 49, 56, 60 (Avg:52)
908 Tessa Wiedmann Diara Little Jem 2 (BC) 20:58:00 7.7, 9.6, 7.0, 6.7 7.63 38, 48, 52, 56, 57 (Avg:53)
90 Samantha Noble Springridge Bungendore Lame L1 0:00:00 12.8 - 34, 38 (Avg:38)